Historyczne dane pomiarowe

Dodano dane terminowe – wersja testowa.

Dane z okresu 1951-2019

Wersja bazy: 1.34 [2019-03-16, lista zmian], aktualizacja planowana na 2019-04-15

Dane meteo z obszaru Polski uzyskane na podstawie danych udostępnionych przez Instytut Meteorologii i Gospodarki Wodnej – Państwowy Instytut Badawczy.

 

Wybierz Datę:    

       

TemperaturaWilgotnośćWiatrCiśnienieOpadyŚniegCzas trwania zjawisk
 Stacja t tx tn tng RH VA  wxwx mslp ppp RRR   cm mm wxwxwxwxwxwxwx
1964-01-17 -3.2 0.0-16.3-20.6 97.5- 8.0 4.0---- 0.7-- 5---------
1964-01-18 -0.1 0.1 -1.0 0.0 92.5- 8.0 6.7---- 0.2-- 7---------
1964-01-19 -1.0 -0.2 -1.8 -2.1 96.8- 8.0 6.7---- 0.1-- 7---------
1964-01-20 -2.0 -0.6 -3.3 -2.1 92.8- 8.0 3.0---- 0.0-- 7---------
1964-01-21 -1.8 -0.2 -6.4 -6.6 99.5- 8.0 8.3---- 1.0-- 6---------
1964-01-22 1.4 2.3 -0.5 -0.1 88.8- 6.7 8.7---- 2.1-- 5---------
1964-01-23 -1.2 0.9 -2.7 -2.5 91.8- 7.3 6.0---- 0.1-- 3---------
1964-01-24 -0.2 0.7 -3.7 -3.1 88.3- 7.3 8.7---- 0.5-- 3---------
1964-01-25 -0.4 1.1 -1.3 -1.9 94.8- 6.3 8.7---- 0.1-- 5---------
1964-01-26 -3.1 -1.1 -9.1 -9.8 88.5- 5.0 7.3---- 2.8-- 6---------
1964-01-27 -5.3 1.2 -7.4 -6.0 91.3- 4.7 12.0---- 0.4-- 10---------
1964-01-28 -8.9 -4.6-12.8-16.2 95.3- 4.7 2.3---- 0.0-- 11---------
1964-01-29 -6.7 -5.2-10.9-12.5 88.8- 5.7 4.0---- 0.0-- 11---------
1964-01-30 -2.6 -0.4 -5.6 -7.5 89.5- 5.3 5.3---- 0.0-- 11---------
1964-01-31 -1.0 1.2 -7.7-10.2 94.0- 8.0 5.7---- 0.2-- 10---------
1964-02-01 0.9 1.3 -0.1 -0.8 95.3- 8.0 7.7---- 4.1-- 10---------
1964-02-02 0.4 2.4 -0.1 -0.5 99.5- 8.0 9.0---- 1.9-- 8---------
1964-02-03 -1.3 0.6 -2.8 -0.7 85.8- 6.7 4.3---- 1.5-- 6---------
1964-02-04 0.9 1.5 -3.0 -4.3 96.5- 8.0 6.0---- 2.6-- 6---------
1964-02-05 -1.3 1.1 -2.5 -1.2 91.5- 7.3 11.3---- 0.3-- 9---------
1964-02-06 -4.3 -1.7 -7.1 -6.0 90.5- 7.3 11.3---- 0.5-- 12---------
1964-02-07 -5.3 -2.3 -8.4 -3.4 86.0- 6.3 8.0---- 0.1-- 15---------
1964-02-08 0.1 0.9 -7.1 -7.5 98.8- 8.0 4.7---- 2.2-- 16---------
1964-02-09 -6.2 1.4 -9.6 -2.9 90.5- 8.0 7.3---- 0.2-- 17---------
1964-02-10-11.9 -9.2-18.9-23.6 93.3- 4.7 2.7---- 2.3-- 17---------
1964-02-11 -6.1 0.1-11.4 -9.0 88.3- 5.7 9.3---- 0.2-- 26---------
1964-02-12 -8.2 -5.8-14.3-13.1 93.5- 7.7 4.0---- 7.6-- 30---------
1964-02-13-13.7 -6.3-14.6-13.1 88.8- 8.0 8.0---- 0.1-- 42---------
1964-02-14-15.8-11.9-20.3-24.6 93.5- 2.7 3.3---- 0.2-- 42---------
1964-02-15-17.0-11.7-22.1-29.6 87.3- 0.0 1.0---- 0.0-- 42---------
190.6 ms

 

Źródłem pochodzenia danych jest Instytut Meteorologii i Gospodarki Wodnej – Państwowy Instytut Badawczy. Dane Instytutu Meteorologii i Gospodarki Wodnej – Państwowego Instytutu Badawczego zostały przetworzone.

Dane źródłowe można odnaleźć na stronie https://dane.imgw.pl